createdAt,value
2019-03-20T00:00:16.390Z,96321.45
2019-03-20T00:02:45.300Z,96321.16
2019-03-20T00:05:14.057Z,96321.73
2019-03-20T00:07:42.678Z,96320.36
2019-03-20T00:10:11.382Z,96322.01
2019-03-20T00:12:40.266Z,96317.20
2019-03-20T00:15:10.035Z,96316.30
2019-03-20T00:17:39.592Z,96311.22
2019-03-20T00:20:09.490Z,96311.11
2019-03-20T00:22:38.325Z,96313.51
2019-03-20T00:25:07.116Z,96313.48
2019-03-20T00:27:35.712Z,96321.50
2019-03-20T00:30:04.858Z,96320.95
2019-03-20T00:32:33.455Z,96317.96
2019-03-20T00:35:02.062Z,96314.50
2019-03-20T00:37:30.853Z,96311.52
2019-03-20T00:39:59.958Z,96306.12
2019-03-20T00:42:28.536Z,96301.94
2019-03-20T00:44:57.486Z,96310.42
2019-03-20T00:47:26.311Z,96314.55
2019-03-20T00:49:55.139Z,96312.63
2019-03-20T00:52:23.767Z,96309.47
2019-03-20T00:54:52.846Z,96314.23
2019-03-20T00:57:21.517Z,96310.59
2019-03-20T00:59:50.160Z,96321.89
2019-03-20T01:02:19.009Z,96321.57
2019-03-20T01:04:47.639Z,96324.23
2019-03-20T01:07:16.240Z,96324.34
2019-03-20T01:09:44.844Z,96325.03
2019-03-20T01:12:13.664Z,96325.06
2019-03-20T01:14:42.287Z,96319.26
2019-03-20T01:17:10.866Z,96325.84
2019-03-20T01:19:39.487Z,96319.73
2019-03-20T01:22:08.068Z,96311.93
2019-03-20T01:24:37.109Z,96316.48
2019-03-20T01:27:05.929Z,96317.00
2019-03-20T01:29:34.753Z,96315.86
2019-03-20T01:32:03.575Z,96315.84
2019-03-20T01:34:32.183Z,96313.84
2019-03-20T01:37:00.845Z,96315.80
2019-03-20T01:39:29.445Z,96313.47
2019-03-20T01:41:58.052Z,96311.97
2019-03-20T01:44:27.126Z,96302.17
2019-03-20T01:46:55.726Z,96303.95
2019-03-20T01:49:24.369Z,96310.60
2019-03-20T01:51:52.971Z,96305.95
2019-03-20T01:54:21.557Z,96308.03
2019-03-20T01:56:50.393Z,96314.47
2019-03-20T01:59:18.972Z,96311.02
2019-03-20T02:01:47.590Z,96307.20
2019-03-20T02:04:16.433Z,96314.38
2019-03-20T02:06:45.260Z,96308.48
2019-03-20T02:09:13.916Z,96303.05
2019-03-20T02:11:42.764Z,96306.91
2019-03-20T02:14:11.347Z,96307.74
2019-03-20T02:16:40.015Z,96308.44
2019-03-20T02:19:08.852Z,96318.75
2019-03-20T02:21:37.463Z,96310.84
2019-03-20T02:24:06.162Z,96306.53
2019-03-20T02:26:35.016Z,96311.69
2019-03-20T02:29:03.605Z,96318.26
2019-03-20T02:31:32.220Z,96315.30
2019-03-20T02:34:01.048Z,96313.51
2019-03-20T02:36:29.947Z,96310.69
2019-03-20T02:38:58.559Z,96313.30
2019-03-20T02:41:27.239Z,96315.97
2019-03-20T02:43:56.390Z,96313.34
2019-03-20T02:46:25.457Z,96317.78
2019-03-20T02:48:54.066Z,96320.70
2019-03-20T02:51:22.713Z,96315.22
2019-03-20T02:53:51.322Z,96314.09
2019-03-20T02:56:19.941Z,96315.59
2019-03-20T02:58:48.534Z,96311.31
2019-03-20T03:01:17.126Z,96311.19
2019-03-20T03:03:45.749Z,96318.83
2019-03-20T03:06:14.371Z,96312.81
2019-03-20T03:08:43.304Z,96308.47
2019-03-20T03:11:12.349Z,96320.94
2019-03-20T03:13:41.497Z,96317.70
2019-03-20T03:16:10.095Z,96317.06
2019-03-20T03:18:38.796Z,96319.22
2019-03-20T03:21:07.898Z,96319.02
2019-03-20T03:23:37.006Z,96320.30
2019-03-20T03:26:05.864Z,96321.59
2019-03-20T03:28:34.665Z,96321.83
2019-03-20T03:31:03.304Z,96320.27
2019-03-20T03:33:32.099Z,96319.11
2019-03-20T03:36:00.689Z,96327.98
2019-03-20T03:38:29.282Z,96329.48
2019-03-20T03:40:57.880Z,96328.19
2019-03-20T03:43:26.730Z,96323.36
2019-03-20T03:45:55.328Z,96322.01
2019-03-20T03:48:24.155Z,96326.31
2019-03-20T03:50:52.769Z,96335.31
2019-03-20T03:53:21.360Z,96326.09
2019-03-20T03:55:50.729Z,96320.41
2019-03-20T03:58:19.567Z,96324.80
2019-03-20T04:00:48.428Z,96334.91
2019-03-20T04:03:17.243Z,96326.02
2019-03-20T04:05:46.073Z,96326.88
2019-03-20T04:08:14.677Z,96332.53
2019-03-20T04:10:43.284Z,96333.52
2019-03-20T04:13:12.214Z,96339.89
2019-03-20T04:15:40.819Z,96331.02
2019-03-20T04:18:09.413Z,96330.74
2019-03-20T04:20:38.090Z,96340.25
2019-03-20T04:23:06.935Z,96339.84
2019-03-20T04:25:35.569Z,96332.41
2019-03-20T04:28:04.476Z,96335.13
2019-03-20T04:30:33.305Z,96338.03
2019-03-20T04:33:02.176Z,96347.35
2019-03-20T04:35:30.752Z,96350.55
2019-03-20T04:37:59.581Z,96347.92
2019-03-20T04:40:28.180Z,96342.66
2019-03-20T04:42:57.012Z,96338.88
2019-03-20T04:45:25.617Z,96340.20
2019-03-20T04:47:54.540Z,96345.95
2019-03-20T04:50:23.090Z,96346.00
2019-03-20T04:52:51.740Z,96340.52
2019-03-20T04:55:20.594Z,96335.34
2019-03-20T04:57:49.507Z,96338.73
2019-03-20T05:00:18.198Z,96340.41
2019-03-20T05:02:46.854Z,96344.14
2019-03-20T05:05:15.457Z,96345.95
2019-03-20T05:07:44.102Z,96336.89
2019-03-20T05:10:12.942Z,96340.95
2019-03-20T05:12:41.561Z,96351.39
2019-03-20T05:15:10.591Z,96340.70
2019-03-20T05:17:42.315Z,96342.08
2019-03-20T05:20:11.957Z,96337.85
2019-03-20T05:22:40.590Z,96339.91
2019-03-20T05:25:09.339Z,96344.63
2019-03-20T05:27:38.280Z,96338.83
2019-03-20T05:30:07.416Z,96341.41
2019-03-20T05:32:36.041Z,96345.06
2019-03-20T05:35:04.768Z,96338.98
2019-03-20T05:37:33.578Z,96350.39
2019-03-20T05:40:02.201Z,96347.26
2019-03-20T05:42:30.819Z,96352.51
2019-03-20T05:44:59.439Z,96353.72
2019-03-20T05:47:28.049Z,96354.80
2019-03-20T05:49:56.900Z,96357.10
2019-03-20T05:52:25.728Z,96366.42
2019-03-20T05:54:54.617Z,96376.05
2019-03-20T05:57:23.222Z,96368.33
2019-03-20T05:59:51.832Z,96371.78
2019-03-20T06:02:20.460Z,96376.69
2019-03-20T06:04:49.294Z,96378.70
2019-03-20T06:07:21.743Z,96382.95
2019-03-20T06:09:48.582Z,96386.75
2019-03-20T06:12:17.214Z,96392.23
2019-03-20T06:14:45.834Z,96389.73
2019-03-20T06:17:14.467Z,96388.47
2019-03-20T06:19:43.102Z,96391.35
2019-03-20T06:22:11.741Z,96390.03
2019-03-20T06:24:40.367Z,96395.13
2019-03-20T06:27:09.002Z,96397.48
2019-03-20T06:29:37.606Z,96399.30
2019-03-20T06:32:06.481Z,96400.90
2019-03-20T06:34:35.082Z,96401.30
2019-03-20T06:37:04.275Z,96405.06
2019-03-20T06:39:32.987Z,96402.19
2019-03-20T06:42:01.642Z,96414.31
2019-03-20T06:44:30.486Z,96415.36
2019-03-20T06:46:59.388Z,96415.45
2019-03-20T06:49:28.576Z,96416.68
2019-03-20T06:51:57.301Z,96416.68
2019-03-20T06:54:26.196Z,96416.30
2019-03-20T06:56:54.811Z,96420.95
2019-03-20T06:59:55.495Z,96419.91
2019-03-20T07:02:24.077Z,96413.25
2019-03-20T07:05:34.965Z,96420.91
2019-03-20T07:08:03.533Z,96420.67
2019-03-20T07:10:43.394Z,96413.47
2019-03-20T07:13:12.073Z,96416.02
2019-03-20T07:15:41.191Z,96424.67
2019-03-20T07:18:10.058Z,96424.34
2019-03-20T07:20:38.757Z,96422.58
2019-03-20T07:23:07.686Z,96424.63
2019-03-20T07:25:36.557Z,96414.55
2019-03-20T07:28:05.372Z,96420.16
2019-03-20T07:30:33.997Z,96432.98
2019-03-20T07:33:02.740Z,96432.63
2019-03-20T07:35:31.491Z,96437.80
2019-03-20T07:38:00.138Z,96438.53
2019-03-20T07:40:31.930Z,96440.69
2019-03-20T07:43:08.872Z,96438.31
2019-03-20T07:45:31.203Z,96439.20
2019-03-20T07:47:59.900Z,96441.13
2019-03-20T07:50:29.866Z,96443.94
2019-03-20T07:52:58.729Z,96439.61
2019-03-20T07:55:27.386Z,96443.09
2019-03-20T07:57:56.541Z,96444.59
2019-03-20T08:00:25.441Z,96445.07
2019-03-20T08:02:54.075Z,96451.27
2019-03-20T08:05:29.184Z,96449.78
2019-03-20T08:07:53.283Z,96453.58
2019-03-20T08:10:22.227Z,96464.20
2019-03-20T08:12:50.906Z,96462.77
2019-03-20T08:15:19.624Z,96459.63
2019-03-20T08:17:48.523Z,96458.89
2019-03-20T08:20:17.322Z,96468.22
2019-03-20T08:22:45.962Z,96460.30
2019-03-20T08:25:14.611Z,96461.41
2019-03-20T08:27:43.536Z,96466.51
2019-03-20T08:30:13.972Z,96467.84
2019-03-20T08:32:42.554Z,96472.27
2019-03-20T08:35:11.534Z,96477.50
2019-03-20T08:37:40.531Z,96478.07
2019-03-20T08:40:09.903Z,96474.75
2019-03-20T08:42:38.584Z,96483.02
2019-03-20T08:45:07.808Z,96480.37
2019-03-20T08:47:36.924Z,96487.23
2019-03-20T08:50:07.394Z,96481.45
2019-03-20T08:52:36.005Z,96487.81
2019-03-20T08:55:04.999Z,96487.91
2019-03-20T08:57:33.679Z,96491.77
2019-03-20T09:00:02.597Z,96494.90
2019-03-20T09:02:31.459Z,96497.55
2019-03-20T09:05:00.338Z,96500.02
2019-03-20T09:07:29.009Z,96494.41
2019-03-20T09:09:57.697Z,96504.95
2019-03-20T09:12:26.309Z,96509.83
2019-03-20T09:14:55.442Z,96507.11
2019-03-20T09:17:24.067Z,96504.67
2019-03-20T09:19:52.745Z,96507.30
2019-03-20T09:22:21.650Z,96509.39
2019-03-20T09:24:50.302Z,96512.00
2019-03-20T09:27:19.422Z,96523.31
2019-03-20T09:29:48.063Z,96517.67
2019-03-20T09:32:16.721Z,96517.87
2019-03-20T09:34:45.352Z,96517.34
2019-03-20T09:37:14.005Z,96518.17
2019-03-20T09:39:42.613Z,96513.67
2019-03-20T09:42:11.525Z,96517.85
2019-03-20T09:44:40.149Z,96518.41
2019-03-20T09:47:08.852Z,96515.83
2019-03-20T09:49:37.763Z,96518.30
2019-03-20T09:52:06.711Z,96518.75
2019-03-20T09:54:35.565Z,96510.68
2019-03-20T09:57:04.426Z,96509.10
2019-03-20T09:59:33.051Z,96514.19
2019-03-20T10:02:02.965Z,96509.19
2019-03-20T10:04:31.913Z,96510.25
2019-03-20T10:07:00.564Z,96505.92
2019-03-20T10:09:29.235Z,96508.06
2019-03-20T10:11:57.919Z,96506.00
2019-03-20T10:14:26.768Z,96510.45
2019-03-20T10:16:55.641Z,96504.56
2019-03-20T10:19:24.547Z,96504.38
2019-03-20T10:21:53.435Z,96501.87
2019-03-20T10:24:22.283Z,96503.34
2019-03-20T10:26:51.232Z,96500.72
2019-03-20T10:29:19.919Z,96499.77
2019-03-20T10:31:48.808Z,96495.69
2019-03-20T10:34:17.427Z,96496.52
2019-03-20T10:36:46.056Z,96499.70
2019-03-20T10:39:14.923Z,96505.36
2019-03-20T10:41:43.776Z,96501.66
2019-03-20T10:44:12.883Z,96498.95
2019-03-20T10:46:41.503Z,96494.61
2019-03-20T10:49:10.164Z,96490.52
2019-03-20T10:51:38.810Z,96494.12
2019-03-20T10:54:07.501Z,96498.85
2019-03-20T10:56:36.342Z,96505.59
2019-03-20T10:59:05.051Z,96498.43
2019-03-20T11:01:42.135Z,96504.95
2019-03-20T11:04:04.163Z,96510.17
2019-03-20T11:06:33.184Z,96501.53
2019-03-20T11:09:02.071Z,96514.04
2019-03-20T11:11:30.688Z,96509.73
2019-03-20T11:13:59.610Z,96509.17
2019-03-20T11:16:28.236Z,96511.16
2019-03-20T11:18:56.909Z,96512.86
2019-03-20T11:21:25.567Z,96516.25
2019-03-20T11:23:54.321Z,96511.14
2019-03-20T11:26:22.975Z,96521.25
2019-03-20T11:28:51.773Z,96511.95
2019-03-20T11:31:20.481Z,96516.79
2019-03-20T11:33:49.334Z,96516.84
2019-03-20T11:36:18.222Z,96521.89
2019-03-20T11:38:47.412Z,96520.63
2019-03-20T11:41:16.277Z,96516.94
2019-03-20T11:43:45.000Z,96514.70
2019-03-20T11:46:13.630Z,96516.89
2019-03-20T11:48:42.254Z,96519.62
2019-03-20T11:51:11.135Z,96516.36
2019-03-20T11:53:40.061Z,96518.83
2019-03-20T11:56:08.712Z,96522.26
2019-03-20T11:58:37.884Z,96522.53
2019-03-20T12:01:06.622Z,96526.40
2019-03-20T12:03:35.309Z,96529.25
2019-03-20T12:06:03.962Z,96534.09
2019-03-20T12:08:33.161Z,96527.43
2019-03-20T12:11:01.865Z,96524.94
2019-03-20T12:13:30.568Z,96526.70
2019-03-20T12:15:59.458Z,96531.11
2019-03-20T12:18:28.748Z,96533.13
2019-03-20T12:20:57.394Z,96530.78
2019-03-20T12:23:27.230Z,96525.91
2019-03-20T12:25:55.907Z,96537.42
2019-03-20T12:28:24.888Z,96533.87
2019-03-20T12:30:53.532Z,96532.81
2019-03-20T12:33:22.196Z,96528.63
2019-03-20T12:35:51.101Z,96526.55
2019-03-20T12:38:19.750Z,96522.83
2019-03-20T12:40:48.410Z,96525.45
2019-03-20T12:43:17.023Z,96520.98
2019-03-20T12:45:45.729Z,96516.38
2019-03-20T12:48:14.378Z,96520.19
2019-03-20T12:50:43.247Z,96512.23
2019-03-20T12:53:12.372Z,96520.02
2019-03-20T12:55:41.323Z,96515.16
2019-03-20T12:58:10.825Z,96517.75
2019-03-20T13:00:39.684Z,96508.03
2019-03-20T13:03:08.317Z,96503.30
2019-03-20T13:05:37.150Z,96510.23
2019-03-20T13:08:06.505Z,96521.00
2019-03-20T13:10:35.358Z,96515.67
2019-03-20T13:13:04.038Z,96514.16
2019-03-20T13:15:33.613Z,96510.22
2019-03-20T13:18:02.585Z,96510.66
2019-03-20T13:20:31.464Z,96513.36
2019-03-20T13:23:08.841Z,96511.80
2019-03-20T13:25:37.954Z,96519.44
2019-03-20T13:28:06.710Z,96528.09
2019-03-20T13:30:41.211Z,96534.41
2019-03-20T13:33:10.130Z,96530.73
2019-03-20T13:35:39.104Z,96518.50
2019-03-20T13:38:08.158Z,96513.88
2019-03-20T13:40:37.116Z,96513.09
2019-03-20T13:43:05.855Z,96527.83
2019-03-20T13:45:34.888Z,96524.68
2019-03-20T13:48:03.638Z,96520.68
2019-03-20T13:50:32.476Z,96526.52
2019-03-20T13:53:01.132Z,96527.44
2019-03-20T13:55:29.842Z,96526.66
2019-03-20T13:57:58.496Z,96533.61
2019-03-20T14:00:27.190Z,96530.98
2019-03-20T14:02:58.364Z,96526.23
2019-03-20T14:05:26.975Z,96534.91
2019-03-20T14:07:55.660Z,96539.66
2019-03-20T14:10:25.755Z,96539.91
2019-03-20T14:12:54.885Z,96537.37
2019-03-20T14:15:23.496Z,96539.13
2019-03-20T14:17:52.272Z,96545.44
2019-03-20T14:20:22.516Z,96542.01
2019-03-20T14:22:52.171Z,96533.61
2019-03-20T14:25:20.977Z,96532.80
2019-03-20T14:27:49.945Z,96536.50
2019-03-20T14:30:21.031Z,96533.86
2019-03-20T14:32:49.658Z,96534.11
2019-03-20T14:35:18.357Z,96544.38
2019-03-20T14:37:49.009Z,96534.13
2019-03-20T14:40:19.367Z,96530.95
2019-03-20T14:42:48.090Z,96530.99
2019-03-20T14:45:16.948Z,96527.05
2019-03-20T14:47:45.832Z,96525.48
2019-03-20T14:50:16.256Z,96523.77
2019-03-20T14:52:44.896Z,96526.99
2019-03-20T14:55:13.725Z,96516.27
2019-03-20T14:57:42.680Z,96520.20
2019-03-20T15:00:16.911Z,96523.63
2019-03-20T15:02:45.740Z,96524.05
2019-03-20T15:05:14.975Z,96523.61
2019-03-20T15:07:43.963Z,96527.56
2019-03-20T15:10:14.705Z,96521.81
2019-03-20T15:12:43.497Z,96524.89
2019-03-20T15:15:15.894Z,96524.16
2019-03-20T15:17:44.796Z,96527.83
2019-03-20T15:20:13.585Z,96524.34
2019-03-20T15:22:42.473Z,96517.95
2019-03-20T15:25:11.210Z,96513.58
2019-03-20T15:27:39.861Z,96511.38
2019-03-20T15:30:11.040Z,96510.78
2019-03-20T15:32:40.822Z,96504.38
2019-03-20T15:35:09.722Z,96495.94
2019-03-20T15:37:39.910Z,96502.80
2019-03-20T15:40:10.482Z,96495.13
2019-03-20T15:42:39.445Z,96491.34
2019-03-20T15:45:08.857Z,96493.63
2019-03-20T15:47:37.777Z,96491.96
2019-03-20T15:50:07.316Z,96488.88
2019-03-20T15:52:36.206Z,96487.25
2019-03-20T15:55:05.460Z,96488.10
2019-03-20T15:57:34.132Z,96489.08
2019-03-20T16:00:02.988Z,96486.22
2019-03-20T16:02:31.674Z,96487.83
2019-03-20T16:05:00.338Z,96488.48
2019-03-20T16:07:29.466Z,96487.82
2019-03-20T16:09:58.097Z,96486.28
2019-03-20T16:12:27.050Z,96490.18
2019-03-20T16:14:55.705Z,96487.44
2019-03-20T16:17:24.404Z,96489.98
2019-03-20T16:19:53.043Z,96493.64
2019-03-20T16:22:21.945Z,96492.43
2019-03-20T16:24:50.592Z,96493.47
2019-03-20T16:27:19.644Z,96494.08
2019-03-20T16:29:48.506Z,96484.45
2019-03-20T16:32:17.444Z,96481.58
2019-03-20T16:34:46.141Z,96483.03
2019-03-20T16:37:15.046Z,96485.27
2019-03-20T16:39:43.706Z,96490.20
2019-03-20T16:42:12.463Z,96496.42
2019-03-20T16:44:41.087Z,96495.31
2019-03-20T16:47:10.117Z,96497.22
2019-03-20T16:49:38.789Z,96506.78
2019-03-20T16:52:07.524Z,96507.30
2019-03-20T16:54:36.258Z,96510.97
2019-03-20T16:57:05.181Z,96512.24
2019-03-20T16:59:35.120Z,96516.83
2019-03-20T17:02:03.761Z,96514.90
2019-03-20T17:04:32.412Z,96518.19
2019-03-20T17:07:01.583Z,96523.78
2019-03-20T17:09:30.244Z,96533.98
2019-03-20T17:11:58.888Z,96533.62
2019-03-20T17:14:27.544Z,96544.52
2019-03-20T17:16:56.291Z,96546.68
2019-03-20T17:19:25.393Z,96552.25
2019-03-20T17:21:54.019Z,96554.64
2019-03-20T17:24:22.639Z,96549.54
2019-03-20T17:26:51.250Z,96551.08
2019-03-20T17:29:20.025Z,96549.33
2019-03-20T17:31:48.738Z,96547.30
2019-03-20T17:34:17.407Z,96542.94
2019-03-20T17:36:46.069Z,96540.87
2019-03-20T17:39:14.982Z,96540.83
2019-03-20T17:41:43.807Z,96542.83
2019-03-20T17:44:13.148Z,96548.22
2019-03-20T17:46:41.864Z,96545.55
2019-03-20T17:49:12.193Z,96547.95
2019-03-20T17:51:40.827Z,96539.46
2019-03-20T17:54:09.762Z,96539.56
2019-03-20T17:56:38.663Z,96536.60
2019-03-20T17:59:07.541Z,96536.05
2019-03-20T18:01:36.399Z,96544.23
2019-03-20T18:04:07.674Z,96547.31
2019-03-20T18:06:36.744Z,96549.40
2019-03-20T18:09:08.529Z,96561.25
2019-03-20T18:11:46.848Z,96556.15
2019-03-20T18:14:07.533Z,96558.59
2019-03-20T18:16:36.259Z,96554.88
2019-03-20T18:19:05.054Z,96558.67
2019-03-20T18:21:33.943Z,96560.80
2019-03-20T18:24:02.626Z,96563.69
2019-03-20T18:26:31.347Z,96574.19
2019-03-20T18:28:59.999Z,96571.44
2019-03-20T18:31:28.664Z,96576.25
2019-03-20T18:33:57.529Z,96581.68
2019-03-20T18:36:26.456Z,96584.86
2019-03-20T18:38:55.123Z,96586.66
2019-03-20T18:41:23.855Z,96582.70
2019-03-20T18:43:52.485Z,96581.13
2019-03-20T18:46:21.094Z,96584.48
2019-03-20T18:48:50.062Z,96585.28
2019-03-20T18:51:18.681Z,96580.89
2019-03-20T18:53:47.802Z,96583.72
2019-03-20T18:56:16.449Z,96585.37
2019-03-20T18:58:52.426Z,96582.58
2019-03-20T19:01:21.304Z,96592.41
2019-03-20T19:03:50.223Z,96587.98
2019-03-20T19:06:24.311Z,96589.78
2019-03-20T19:08:53.044Z,96589.89
2019-03-20T19:11:21.999Z,96590.95
2019-03-20T19:13:51.330Z,96592.50
2019-03-20T19:16:20.042Z,96594.48
2019-03-20T19:18:48.744Z,96596.53
2019-03-20T19:21:17.687Z,96603.95
2019-03-20T19:23:47.209Z,96603.98
2019-03-20T19:26:15.993Z,96611.27
2019-03-20T19:28:44.671Z,96604.81
2019-03-20T19:31:13.334Z,96600.66
2019-03-20T19:33:42.056Z,96610.42
2019-03-20T19:36:11.331Z,96614.12
2019-03-20T19:38:41.059Z,96612.64
2019-03-20T19:41:09.663Z,96616.73
2019-03-20T19:43:38.351Z,96618.47
2019-03-20T19:46:07.250Z,96616.55
2019-03-20T19:48:35.874Z,96618.38
2019-03-20T19:51:04.532Z,96615.47
2019-03-20T19:53:33.173Z,96613.01
2019-03-20T19:56:01.899Z,96608.41
2019-03-20T19:58:30.624Z,96604.68
2019-03-20T20:00:59.322Z,96613.38
2019-03-20T20:03:28.023Z,96611.07
2019-03-20T20:05:56.992Z,96610.05
2019-03-20T20:08:26.110Z,96607.13
2019-03-20T20:10:54.763Z,96616.08
2019-03-20T20:13:23.377Z,96612.20
2019-03-20T20:15:52.410Z,96622.19
2019-03-20T20:18:21.083Z,96622.19
2019-03-20T20:20:50.031Z,96623.48
2019-03-20T20:23:18.673Z,96615.91
2019-03-20T20:25:47.553Z,96624.41
2019-03-20T20:28:16.954Z,96624.41
2019-03-20T20:30:45.554Z,96620.81
2019-03-20T20:33:14.213Z,96624.59
2019-03-20T20:35:42.861Z,96634.45
2019-03-20T20:38:11.526Z,96634.45
2019-03-20T20:40:40.257Z,96632.59
2019-03-20T20:43:09.202Z,96628.74
2019-03-20T20:45:37.870Z,96628.74
2019-03-20T20:48:06.501Z,96627.64
2019-03-20T20:50:35.211Z,96624.95
2019-03-20T20:53:04.944Z,96626.12
2019-03-20T20:55:33.738Z,96617.33
2019-03-20T20:58:02.434Z,96616.16
2019-03-20T21:00:31.035Z,96615.76
2019-03-20T21:02:59.956Z,96619.57
2019-03-20T21:05:28.905Z,96619.57
2019-03-20T21:07:58.421Z,96620.60
2019-03-20T21:10:27.649Z,96623.59
2019-03-20T21:12:57.622Z,96623.59
2019-03-20T21:15:37.424Z,96620.33
2019-03-20T21:18:52.285Z,96620.33
2019-03-20T21:21:22.152Z,96618.40
2019-03-20T21:24:27.668Z,96620.25
2019-03-20T21:27:50.051Z,96617.02
2019-03-20T21:30:41.928Z,96614.31
2019-03-20T21:33:19.427Z,96612.55
2019-03-20T21:36:19.803Z,96614.47
2019-03-20T21:38:51.302Z,96612.17
2019-03-20T21:42:02.614Z,96619.98
2019-03-20T21:45:22.212Z,96613.73
2019-03-20T21:47:51.352Z,96623.69
2019-03-20T21:51:01.458Z,96618.92
2019-03-20T21:54:17.883Z,96611.09
2019-03-20T21:57:24.042Z,96607.10
2019-03-20T22:00:23.246Z,96615.25
2019-03-20T22:02:52.715Z,96620.12
2019-03-20T22:06:12.670Z,96609.38
2019-03-20T22:08:42.124Z,96610.52
2019-03-20T22:11:53.045Z,96616.28
2019-03-20T22:14:22.218Z,96611.63
2019-03-20T22:17:31.197Z,96617.19
2019-03-20T22:20:31.965Z,96617.87
2019-03-20T22:23:47.833Z,96621.67
2019-03-20T22:26:54.571Z,96618.65
2019-03-20T22:29:24.967Z,96610.84
2019-03-20T22:32:50.092Z,96611.83
2019-03-20T22:35:46.133Z,96606.78
2019-03-20T22:39:01.877Z,96615.58
2019-03-20T22:42:12.565Z,96617.03
2019-03-20T22:44:57.966Z,96615.44
2019-03-20T22:48:10.144Z,96615.77
2019-03-20T22:50:46.269Z,96613.25
2019-03-20T22:53:41.761Z,96618.52
2019-03-20T22:57:00.655Z,96614.23
2019-03-20T22:59:29.790Z,96623.77
2019-03-20T23:02:27.801Z,96626.39
2019-03-20T23:04:58.648Z,96631.45
2019-03-20T23:07:28.098Z,96630.63
2019-03-20T23:09:58.064Z,96628.95
2019-03-20T23:12:27.184Z,96639.36
2019-03-20T23:14:56.386Z,96628.69
2019-03-20T23:17:25.578Z,96633.20
2019-03-20T23:19:56.063Z,96636.20
2019-03-20T23:22:25.193Z,96649.52
2019-03-20T23:24:54.345Z,96637.13
2019-03-20T23:27:29.042Z,96641.06
2019-03-20T23:29:58.544Z,96647.80
2019-03-20T23:32:28.051Z,96644.74
2019-03-20T23:34:57.514Z,96648.14
2019-03-20T23:37:26.674Z,96641.66
2019-03-20T23:39:56.065Z,96653.22
2019-03-20T23:42:25.927Z,96649.56
2019-03-20T23:44:55.226Z,96650.55
2019-03-20T23:47:36.341Z,96646.88
2019-03-20T23:50:06.455Z,96645.92
2019-03-20T23:52:35.592Z,96646.24
2019-03-20T23:55:05.874Z,96643.28
2019-03-20T23:57:34.999Z,96647.41
